Time;durP1;ratioP1;P1;durP2;ratioP2;P2;SDS_P1;SDS_P2;PMS_P1;PMS_P2;Temp;Humidity;BMP_temperature;BMP_pressure;BME280_temperature;BME280_humidity;BME280_pressure;Samples;Min_cycle;Max_cycle;Signal;HPM_P1;HPM_P2
2023/01/12 00:02:11;;;;;;;13.65;2.50;;;;;;;;;;5117183;28;20046;-73
2023/01/12 00:04:37;;;;;;;14.18;2.70;;;;;;;;;;5117137;28;20055;-73
2023/01/12 00:07:07;;;;;;;17.40;3.00;;;;;;;;;;5117041;28;20047;-71
2023/01/12 00:09:33;;;;;;;12.70;2.50;;;;;;;;;;5116817;28;20080;-72
2023/01/12 00:11:59;;;;;;;11.27;2.83;;;;;;;;;;5115606;28;20044;-72
2023/01/12 00:14:25;;;;;;;17.58;3.00;;;;;;;;;;5099039;28;20047;-72
2023/01/12 00:16:51;;;;;;;16.13;3.17;;;;;;;;;;5109994;28;20048;-72
2023/01/12 00:19:18;;;;;;;15.57;3.15;;;;;;;;;;5127809;27;21748;-72
2023/01/12 00:22:08;;;;;;;11.77;2.53;;;;;;;;;;5103138;28;20031;-72
2023/01/12 00:24:36;;;;;;;11.02;2.20;;;;;;;;;;5102512;28;20036;-72
2023/01/12 00:27:06;;;;;;;16.35;2.85;;;;;;;;;;5101487;28;20752;-72
2023/01/12 00:29:32;;;;;;;15.73;2.97;;;;;;;;;;5103316;28;20502;-72
2023/01/12 00:31:59;;;;;;;15.75;2.78;;;;;;;;;;5102885;28;20043;-72
2023/01/12 00:34:25;;;;;;;19.52;2.85;;;;;;;;;;5104700;28;20051;-72
2023/01/12 00:36:52;;;;;;;16.38;3.03;;;;;;;;;;5102697;28;20047;-71
2023/01/12 00:39:18;;;;;;;16.10;2.92;;;;;;;;;;5099265;28;20048;-72
2023/01/12 00:47:15;;;;;;;22.75;3.97;;;;;;;;;;5100188;28;20071;-71
2023/01/12 00:49:42;;;;;;;18.65;3.65;;;;;;;;;;5108069;28;20043;-73
2023/01/12 00:52:09;;;;;;;18.35;4.18;;;;;;;;;;5114416;28;20126;-73
2023/01/12 00:54:35;;;;;;;18.40;3.97;;;;;;;;;;5114847;28;20050;-73
2023/01/12 00:57:02;;;;;;;18.75;3.53;;;;;;;;;;5116076;28;20043;-73
2023/01/12 00:59:28;;;;;;;18.55;3.25;;;;;;;;;;5116014;28;20047;-73
2023/01/12 01:01:54;;;;;;;16.85;3.78;;;;;;;;;;5116199;28;20073;-73
2023/01/12 01:04:20;;;;;;;19.50;3.47;;;;;;;;;;5106748;28;20464;-73
2023/01/12 01:06:47;;;;;;;22.63;3.95;;;;;;;;;;5097336;28;20051;-73
2023/01/12 01:09:13;;;;;;;23.40;3.60;;;;;;;;;;5114326;28;20096;-73
2023/01/12 01:11:39;;;;;;;18.98;3.55;;;;;;;;;;5115860;28;20043;-73
2023/01/12 01:14:06;;;;;;;16.27;3.33;;;;;;;;;;5115637;28;20044;-72
2023/01/12 01:16:32;;;;;;;17.52;3.60;;;;;;;;;;5115765;28;20059;-73
2023/01/12 01:18:58;;;;;;;21.20;3.78;;;;;;;;;;5131930;27;20054;-73
2023/01/12 01:21:25;;;;;;;18.20;3.30;;;;;;;;;;5111299;27;20082;-73
2023/01/12 01:23:51;;;;;;;20.70;3.97;;;;;;;;;;5101087;27;20044;-73
2023/01/12 01:26:19;;;;;;;21.88;3.70;;;;;;;;;;5098264;28;20043;-72
2023/01/12 01:28:45;;;;;;;21.38;3.55;;;;;;;;;;5101563;28;20386;-72
2023/01/12 01:31:19;;;;;;;17.65;3.33;;;;;;;;;;5097794;28;20035;-72
2023/01/12 01:33:46;;;;;;;26.63;3.45;;;;;;;;;;5100880;28;20153;-73
2023/01/12 01:36:12;;;;;;;27.10;4.07;;;;;;;;;;5101223;28;20047;-73
2023/01/12 01:38:38;;;;;;;20.83;3.88;;;;;;;;;;5095726;28;20044;-73
2023/01/12 01:41:05;;;;;;;22.75;4.40;;;;;;;;;;5097556;28;20075;-72
2023/01/12 01:43:48;;;;;;;18.75;3.72;;;;;;;;;;5101752;28;20032;-73
2023/01/12 01:46:16;;;;;;;15.05;3.28;;;;;;;;;;5094658;28;20035;-72
2023/01/12 01:48:43;;;;;;;18.85;3.42;;;;;;;;;;5108785;27;20051;-72
2023/01/12 01:51:11;;;;;;;18.20;3.65;;;;;;;;;;5097264;28;20474;-72
2023/01/12 01:53:39;;;;;;;22.65;3.97;;;;;;;;;;5100342;28;20497;-72
2023/01/12 01:56:07;;;;;;;21.30;3.70;;;;;;;;;;5098109;28;20036;-72
2023/01/12 01:58:36;;;;;;;21.23;3.58;;;;;;;;;;5098064;28;20430;-73
2023/01/12 02:01:02;;;;;;;19.98;3.10;;;;;;;;;;5108067;28;20036;-73
2023/01/12 02:03:29;;;;;;;20.85;3.65;;;;;;;;;;5114679;28;20055;-72
2023/01/12 02:05:56;;;;;;;15.98;3.55;;;;;;;;;;5114780;28;20044;-73
2023/01/12 02:08:22;;;;;;;22.10;3.92;;;;;;;;;;5112045;27;20493;-73
2023/01/12 02:10:51;;;;;;;18.08;4.10;;;;;;;;;;5112130;27;20035;-73
2023/01/12 02:16:20;;;;;;;17.35;3.63;;;;;;;;;;5096367;28;20055;-71
2023/01/12 02:18:53;;;;;;;20.42;4.15;;;;;;;;;;5104766;28;20130;-73
2023/01/12 02:21:41;;;;;;;22.70;4.43;;;;;;;;;;5101329;28;20088;-72
2023/01/12 02:24:19;;;;;;;17.27;4.15;;;;;;;;;;5100569;28;20047;-72
2023/01/12 02:26:55;;;;;;;19.92;3.83;;;;;;;;;;5098859;28;20089;-71
2023/01/12 02:29:40;;;;;;;19.15;3.97;;;;;;;;;;5100899;28;20417;-72
2023/01/12 02:32:12;;;;;;;22.10;4.45;;;;;;;;;;5095692;28;20666;-73
2023/01/12 02:34:51;;;;;;;21.38;4.10;;;;;;;;;;5097858;28;20031;-73
2023/01/12 02:37:37;;;;;;;16.85;3.67;;;;;;;;;;5107250;28;20048;-73
2023/01/12 02:40:20;;;;;;;17.35;3.55;;;;;;;;;;5111950;28;20435;-73
2023/01/12 02:43:03;;;;;;;22.50;4.07;;;;;;;;;;5105220;28;20397;-73
2023/01/12 02:45:29;;;;;;;23.92;4.25;;;;;;;;;;5110383;28;20516;-73
2023/01/12 02:47:55;;;;;;;15.43;3.35;;;;;;;;;;5111734;28;20036;-73
2023/01/12 02:50:31;;;;;;;22.30;3.97;;;;;;;;;;5100206;28;20528;-73
2023/01/12 02:53:01;;;;;;;20.50;4.00;;;;;;;;;;5110796;28;20083;-73
2023/01/12 02:55:28;;;;;;;19.35;3.95;;;;;;;;;;5113773;28;20190;-73
2023/01/12 02:57:56;;;;;;;22.92;4.25;;;;;;;;;;5113656;28;20402;-73
2023/01/12 03:00:22;;;;;;;21.95;4.78;;;;;;;;;;5113554;28;20485;-73
2023/01/12 03:02:49;;;;;;;29.10;5.05;;;;;;;;;;5107160;28;20048;-73
2023/01/12 03:05:15;;;;;;;25.70;5.50;;;;;;;;;;5093747;28;20059;-73
2023/01/12 03:07:46;;;;;;;23.30;5.57;;;;;;;;;;5115025;27;20039;-73
2023/01/12 03:10:12;;;;;;;;;;;;;;;;;;5114073;28;20517;-73
2023/01/12 03:12:39;;;;;;;26.08;5.28;;;;;;;;;;5112403;28;19955;-73
2023/01/12 03:15:07;;;;;;;25.55;5.68;;;;;;;;;;5113773;27;20044;-72
2023/01/12 03:17:37;;;;;;;20.58;5.75;;;;;;;;;;5112653;28;20528;-73
2023/01/12 03:20:06;;;;;;;21.20;5.95;;;;;;;;;;5101976;28;20089;-73
2023/01/12 03:22:33;;;;;;;21.02;5.95;;;;;;;;;;5100780;28;20055;-73
2023/01/12 03:25:01;;;;;;;18.60;5.80;;;;;;;;;;5097198;28;20497;-73
2023/01/12 03:27:34;;;;;;;17.02;5.10;;;;;;;;;;5094557;28;20048;-73
2023/01/12 03:30:03;;;;;;;21.17;5.80;;;;;;;;;;5099836;28;20043;-73
2023/01/12 03:32:30;;;;;;;19.35;6.00;;;;;;;;;;5097845;28;20047;-73
2023/01/12 03:34:56;;;;;;;14.48;4.88;;;;;;;;;;5101995;28;20398;-73
2023/01/12 03:37:28;;;;;;;17.13;5.50;;;;;;;;;;5109643;28;20039;-74
2023/01/12 03:39:54;;;;;;;19.13;5.60;;;;;;;;;;5107266;28;20044;-73
2023/01/12 03:42:23;;;;;;;17.83;5.97;;;;;;;;;;5110771;28;20447;-72
2023/01/12 03:44:52;;;;;;;19.88;5.95;;;;;;;;;;5093864;28;20040;-73
2023/01/12 03:47:20;;;;;;;15.88;5.65;;;;;;;;;;5098279;28;20048;-73
2023/01/12 03:49:50;;;;;;;18.35;5.53;;;;;;;;;;5102618;28;20040;-73
2023/01/12 03:52:17;;;;;;;20.55;6.10;;;;;;;;;;5101938;28;20036;-73
2023/01/12 03:54:45;;;;;;;21.38;6.07;;;;;;;;;;5105661;28;20119;-73
2023/01/12 03:57:12;;;;;;;17.48;6.20;;;;;;;;;;5110263;28;20466;-75
2023/01/12 03:59:39;;;;;;;18.88;6.30;;;;;;;;;;5099487;28;20123;-73
2023/01/12 04:02:05;;;;;;;16.80;4.78;;;;;;;;;;5113369;28;20040;-75
2023/01/12 04:04:31;;;;;;;11.93;4.57;;;;;;;;;;5106051;28;20060;-74
2023/01/12 04:06:59;;;;;;;13.55;4.88;;;;;;;;;;5115069;28;20039;-75
2023/01/12 04:09:25;;;;;;;13.75;5.22;;;;;;;;;;5113740;28;20565;-76
2023/01/12 04:12:10;;;;;;;12.02;4.80;;;;;;;;;;5111368;28;20105;-74
2023/01/12 04:14:40;;;;;;;15.05;5.03;;;;;;;;;;5103282;28;20119;-73
2023/01/12 04:17:06;;;;;;;14.32;4.68;;;;;;;;;;5093967;28;20047;-73
2023/01/12 04:19:32;;;;;;;16.98;4.82;;;;;;;;;;5107632;28;20086;-73
2023/01/12 04:24:43;;;;;;;13.23;4.32;;;;;;;;;;5099679;28;20056;-73
2023/01/12 04:27:10;;;;;;;10.88;4.55;;;;;;;;;;5096934;28;20390;-73
2023/01/12 04:29:36;;;;;;;12.43;4.53;;;;;;;;;;5120588;27;20051;-73
2023/01/12 04:32:03;;;;;;;13.65;4.32;;;;;;;;;;5110075;27;20438;-71
2023/01/12 04:34:29;;;;;;;12.70;4.38;;;;;;;;;;5101845;27;20044;-73
2023/01/12 04:36:55;;;;;;;13.57;4.10;;;;;;;;;;5104948;28;20048;-73
2023/01/12 04:39:21;;;;;;;14.75;4.10;;;;;;;;;;5100355;28;20126;-72
2023/01/12 04:41:47;;;;;;;13.05;3.60;;;;;;;;;;5104641;28;20392;-73
2023/01/12 04:44:13;;;;;;;13.77;4.05;;;;;;;;;;5099454;28;20036;-73
2023/01/12 04:46:39;;;;;;;13.23;3.60;;;;;;;;;;5102657;28;20453;-73
2023/01/12 04:49:05;;;;;;;13.20;3.30;;;;;;;;;;5114996;28;20043;-73
2023/01/12 04:51:31;;;;;;;10.32;2.90;;;;;;;;;;5114361;28;20052;-73
2023/01/12 04:53:57;;;;;;;11.50;2.83;;;;;;;;;;5116023;28;20621;-73
2023/01/12 04:56:24;;;;;;;12.02;2.33;;;;;;;;;;5117362;27;20043;-73
2023/01/12 04:58:54;;;;;;;9.45;2.45;;;;;;;;;;5114055;28;20138;-73
2023/01/12 05:01:21;;;;;;;6.22;1.83;;;;;;;;;;5115546;28;20047;-74
2023/01/12 05:03:47;;;;;;;8.02;2.08;;;;;;;;;;5114786;28;20055;-73
2023/01/12 05:06:13;;;;;;;8.48;1.90;;;;;;;;;;5115907;28;20051;-73
2023/01/12 05:11:27;;;;;;;9.45;1.92;;;;;;;;;;5115771;28;20051;-73
2023/01/12 05:13:54;;;;;;;8.75;2.00;;;;;;;;;;5115757;28;20554;-74
2023/01/12 05:16:20;;;;;;;9.10;1.98;;;;;;;;;;5114470;28;20044;-73
2023/01/12 05:18:46;;;;;;;10.48;1.80;;;;;;;;;;5110903;27;20040;-73
2023/01/12 05:21:14;;;;;;;5.45;1.40;;;;;;;;;;5100248;28;20048;-73
2023/01/12 05:23:40;;;;;;;9.02;1.73;;;;;;;;;;5101409;28;20108;-73
2023/01/12 05:26:06;;;;;;;7.60;1.80;;;;;;;;;;5102771;28;20227;-72
2023/01/12 05:28:33;;;;;;;8.52;1.70;;;;;;;;;;5100185;27;20439;-73
2023/01/12 05:31:03;;;;;;;8.25;1.80;;;;;;;;;;5099802;28;20040;-73
2023/01/12 05:33:30;;;;;;;5.13;1.20;;;;;;;;;;5107726;28;20043;-73
2023/01/12 05:35:56;;;;;;;6.75;1.60;;;;;;;;;;5106163;28;20046;-73
2023/01/12 05:38:22;;;;;;;6.10;1.40;;;;;;;;;;5106105;28;20490;-73
2023/01/12 05:40:48;;;;;;;6.72;1.50;;;;;;;;;;5094074;28;20040;-74
2023/01/12 05:46:06;;;;;;;6.72;1.50;;;;;;;;;;5103174;28;20055;-73
2023/01/12 05:48:32;;;;;;;7.55;1.55;;;;;;;;;;5095687;28;20057;-73
2023/01/12 05:51:00;;;;;;;11.40;1.60;;;;;;;;;;5095154;28;20071;-72
2023/01/12 05:53:26;;;;;;;6.88;1.50;;;;;;;;;;5099022;28;20047;-74
2023/01/12 05:55:52;;;;;;;5.85;1.35;;;;;;;;;;5099761;28;20086;-73
2023/01/12 05:58:18;;;;;;;6.75;1.60;;;;;;;;;;5096963;28;20051;-71
2023/01/12 06:00:44;;;;;;;9.18;1.75;;;;;;;;;;5096983;28;20044;-73
2023/01/12 06:03:10;;;;;;;6.18;1.30;;;;;;;;;;5102464;28;20059;-73
2023/01/12 06:05:36;;;;;;;7.15;1.40;;;;;;;;;;5097473;28;20805;-73
2023/01/12 06:08:02;;;;;;;5.82;1.50;;;;;;;;;;5101589;28;20386;-72
2023/01/12 06:10:28;;;;;;;5.03;1.20;;;;;;;;;;5099687;28;20043;-73
2023/01/12 06:15:39;;;;;;;6.80;1.48;;;;;;;;;;5099009;28;20130;-72
2023/01/12 06:18:05;;;;;;;6.97;1.40;;;;;;;;;;5101895;28;20120;-73
2023/01/12 06:20:32;;;;;;;7.80;1.45;;;;;;;;;;5102375;27;20050;-73
2023/01/12 06:23:01;;;;;;;6.82;1.60;;;;;;;;;;5098057;28;20067;-74
2023/01/12 06:25:28;;;;;;;9.35;1.92;;;;;;;;;;5100947;28;20409;-73
2023/01/12 06:27:55;;;;;;;6.68;1.80;;;;;;;;;;5102771;28;21707;-73
2023/01/12 06:30:21;;;;;;;5.18;1.50;;;;;;;;;;5101302;27;20040;-72
2023/01/12 06:32:47;;;;;;;8.45;1.67;;;;;;;;;;5098029;28;20125;-73
2023/01/12 06:35:13;;;;;;;5.22;1.40;;;;;;;;;;5100984;28;20054;-73
2023/01/12 06:37:40;;;;;;;7.50;1.52;;;;;;;;;;5100986;28;20488;-73
2023/01/12 06:40:06;;;;;;;7.13;1.52;;;;;;;;;;5098220;28;20040;-73
2023/01/12 06:42:32;;;;;;;6.60;1.77;;;;;;;;;;5096771;28;20123;-73
2023/01/12 06:44:59;;;;;;;7.65;1.70;;;;;;;;;;5099106;28;20039;-74
2023/01/12 06:47:27;;;;;;;7.93;1.67;;;;;;;;;;5107855;28;20040;-73
2023/01/12 06:49:53;;;;;;;7.50;1.40;;;;;;;;;;5105468;28;20043;-73
2023/01/12 06:52:21;;;;;;;5.32;1.10;;;;;;;;;;5099405;28;20040;-73
2023/01/12 06:54:47;;;;;;;5.97;1.23;;;;;;;;;;5093403;28;20052;-73
2023/01/12 06:57:13;;;;;;;6.57;1.60;;;;;;;;;;5097247;28;20044;-73
2023/01/12 06:59:40;;;;;;;7.20;1.58;;;;;;;;;;5121625;27;20646;-74
2023/01/12 07:02:09;;;;;;;6.25;1.45;;;;;;;;;;5112066;27;20044;-73
2023/01/12 07:04:35;;;;;;;5.60;1.15;;;;;;;;;;5114612;28;20501;-74
2023/01/12 07:07:02;;;;;;;4.25;1.30;;;;;;;;;;5111692;27;20447;-73
2023/01/12 07:09:28;;;;;;;8.25;1.90;;;;;;;;;;5110514;27;20067;-73
2023/01/12 07:11:54;;;;;;;4.38;1.20;;;;;;;;;;5112799;27;20051;-74
2023/01/12 07:14:20;;;;;;;6.28;1.30;;;;;;;;;;5112297;28;20055;-73
2023/01/12 07:16:46;;;;;;;4.55;1.30;;;;;;;;;;5098631;28;20047;-73
2023/01/12 07:19:12;;;;;;;4.55;1.30;;;;;;;;;;5102580;28;20043;-74
2023/01/12 07:21:38;;;;;;;4.22;1.30;;;;;;;;;;5111583;28;20515;-73
2023/01/12 07:24:04;;;;;;;6.30;1.30;;;;;;;;;;5110220;28;20042;-74
2023/01/12 07:26:30;;;;;;;5.78;1.70;;;;;;;;;;5111965;27;20040;-73
2023/01/12 07:28:56;;;;;;;7.32;2.00;;;;;;;;;;5112561;28;20047;-73
2023/01/12 07:31:22;;;;;;;5.45;1.50;;;;;;;;;;5096349;28;20040;-73
2023/01/12 07:33:52;;;;;;;5.97;1.73;;;;;;;;;;5104288;28;20047;-73
2023/01/12 07:36:18;;;;;;;5.00;1.63;;;;;;;;;;5110329;28;20382;-72
2023/01/12 07:38:45;;;;;;;6.35;1.60;;;;;;;;;;5110197;28;20067;-73
2023/01/12 07:42:22;;;;;;;6.60;1.73;;;;;;;;;;5111161;28;20040;-73
2023/01/12 07:43:57;;;;;;;6.72;1.90;;;;;;;;;;5099750;28;20104;-73
2023/01/12 07:46:23;;;;;;;4.47;1.33;;;;;;;;;;5110849;28;20065;-73
2023/01/12 07:48:49;;;;;;;6.18;1.90;;;;;;;;;;5092183;28;20044;-73
2023/01/12 07:51:15;;;;;;;5.95;1.83;;;;;;;;;;5104986;28;20131;-72
2023/01/12 07:53:41;;;;;;;5.38;1.70;;;;;;;;;;5102346;27;20043;-72
2023/01/12 07:56:08;;;;;;;5.47;1.73;;;;;;;;;;5094427;28;20417;-72
2023/01/12 07:58:35;;;;;;;5.47;1.60;;;;;;;;;;5100804;28;20137;-71
2023/01/12 08:01:01;;;;;;;6.03;1.80;;;;;;;;;;5093154;28;20044;-73
2023/01/12 08:03:28;;;;;;;5.53;1.83;;;;;;;;;;5097746;28;20148;-72
2023/01/12 08:05:55;;;;;;;4.55;1.73;;;;;;;;;;5104740;28;20049;-73
2023/01/12 08:08:21;;;;;;;5.68;1.80;;;;;;;;;;5115455;28;20106;-73
2023/01/12 08:10:49;;;;;;;4.68;1.30;;;;;;;;;;5095069;28;20051;-73
2023/01/12 08:13:15;;;;;;;4.70;1.40;;;;;;;;;;5111655;28;20036;-73
2023/01/12 08:15:44;;;;;;;5.55;1.80;;;;;;;;;;5116117;27;20085;-73
2023/01/12 08:18:16;;;;;;;6.35;2.10;;;;;;;;;;5112059;28;20039;-72
2023/01/12 08:20:42;;;;;;;5.50;1.90;;;;;;;;;;5115414;27;20377;-73
2023/01/12 08:23:10;;;;;;;5.20;1.50;;;;;;;;;;5115039;28;20189;-73
2023/01/12 08:25:43;;;;;;;4.38;1.40;;;;;;;;;;5113347;28;20057;-73
2023/01/12 08:28:11;;;;;;;3.97;1.58;;;;;;;;;;5115456;28;20550;-73
2023/01/12 08:30:37;;;;;;;3.42;1.35;;;;;;;;;;5115687;28;20059;-73
2023/01/12 08:33:03;;;;;;;5.03;1.48;;;;;;;;;;5113894;27;20050;-70
2023/01/12 08:35:32;;;;;;;4.63;1.67;;;;;;;;;;5107921;28;20044;-72
2023/01/12 08:37:59;;;;;;;4.05;1.30;;;;;;;;;;5097646;27;20048;-72
2023/01/12 08:41:31;;;;;;;7.18;2.00;;;;;;;;;;5098216;28;20035;-73
2023/01/12 08:43:11;;;;;;;4.65;1.90;;;;;;;;;;5100887;28;20048;-73
2023/01/12 08:45:37;;;;;;;7.10;1.80;;;;;;;;;;5115639;28;20104;-72
2023/01/12 08:48:03;;;;;;;6.55;1.60;;;;;;;;;;5116978;27;20043;-73
2023/01/12 08:50:29;;;;;;;8.45;3.00;;;;;;;;;;5104109;28;20044;-72
2023/01/12 08:52:56;;;;;;;6.40;2.10;;;;;;;;;;5113025;27;20498;-73
2023/01/12 08:55:22;;;;;;;7.78;2.80;;;;;;;;;;5118192;27;20122;-72
2023/01/12 08:57:48;;;;;;;9.48;2.60;;;;;;;;;;5126461;27;20043;-73
2023/01/12 09:00:14;;;;;;;7.43;2.17;;;;;;;;;;5112024;28;20085;-72
2023/01/12 09:02:40;;;;;;;8.88;2.30;;;;;;;;;;5114269;28;20040;-73
2023/01/12 09:05:07;;;;;;;5.75;1.90;;;;;;;;;;5115174;28;20389;-72
2023/01/12 09:07:33;;;;;;;8.90;1.90;;;;;;;;;;5115728;27;20050;-73
2023/01/12 09:09:59;;;;;;;8.38;2.17;;;;;;;;;;5114479;28;20051;-72
2023/01/12 09:12:26;;;;;;;11.38;2.17;;;;;;;;;;5112555;28;20048;-72
2023/01/12 09:14:52;;;;;;;8.65;2.03;;;;;;;;;;5113407;28;20056;-72
2023/01/12 09:17:21;;;;;;;12.90;2.35;;;;;;;;;;5114860;28;20130;-72
2023/01/12 09:19:49;;;;;;;10.55;2.10;;;;;;;;;;5110264;27;20068;-72
2023/01/12 09:22:15;;;;;;;11.32;2.30;;;;;;;;;;5113430;28;20119;-73
2023/01/12 09:24:41;;;;;;;11.45;2.03;;;;;;;;;;5114924;28;20070;-72
2023/01/12 09:27:09;;;;;;;11.93;2.20;;;;;;;;;;5105400;28;20178;-72
2023/01/12 09:29:35;;;;;;;12.63;2.10;;;;;;;;;;5094339;28;20394;-72
2023/01/12 09:32:02;;;;;;;14.40;2.83;;;;;;;;;;5093952;28;20410;-72
2023/01/12 09:34:28;;;;;;;19.52;2.45;;;;;;;;;;5077549;28;20040;-73
2023/01/12 09:36:55;;;;;;;17.38;2.67;;;;;;;;;;5097060;28;20105;-72
2023/01/12 09:39:21;;;;;;;20.17;3.10;;;;;;;;;;5095801;28;20044;-72
2023/01/12 09:47:22;;;;;;;19.17;3.40;;;;;;;;;;5101062;27;20055;-72
2023/01/12 09:49:54;;;;;;;27.00;4.25;;;;;;;;;;5113433;27;20075;-72
2023/01/12 09:52:24;;;;;;;20.23;3.80;;;;;;;;;;5112288;27;20036;-72
2023/01/12 09:54:51;;;;;;;18.58;3.60;;;;;;;;;;5110616;27;20374;-73
2023/01/12 09:57:23;;;;;;;19.05;3.05;;;;;;;;;;5129907;27;20412;-73
2023/01/12 10:00:02;;;;;;;18.00;3.38;;;;;;;;;;5093382;28;20040;-72
2023/01/12 10:02:33;;;;;;;20.85;4.25;;;;;;;;;;5099899;28;20044;-72
2023/01/12 10:04:59;;;;;;;19.73;3.72;;;;;;;;;;5098707;27;20111;-72
2023/01/12 10:07:26;;;;;;;19.45;4.30;;;;;;;;;;5108713;28;20150;-72
2023/01/12 10:09:53;;;;;;;24.73;4.55;;;;;;;;;;5095636;28;20051;-72
2023/01/12 10:12:23;;;;;;;21.05;3.53;;;;;;;;;;5105937;27;20498;-73
2023/01/12 10:14:49;;;;;;;24.23;3.55;;;;;;;;;;5101839;27;20032;-74
2023/01/12 10:17:26;;;;;;;18.15;3.60;;;;;;;;;;5105282;27;20051;-72
2023/01/12 10:19:55;;;;;;;16.98;3.65;;;;;;;;;;5100044;27;20095;-72
2023/01/12 10:22:40;;;;;;;22.00;4.47;;;;;;;;;;5111040;27;20048;-72
2023/01/12 10:25:18;;;;;;;17.52;3.35;;;;;;;;;;5103428;28;20051;-72
2023/01/12 10:27:46;;;;;;;16.42;3.35;;;;;;;;;;5093294;28;20079;-72
2023/01/12 10:30:16;;;;;;;19.80;3.70;;;;;;;;;;5108611;28;20044;-72
2023/01/12 10:32:43;;;;;;;20.17;3.08;;;;;;;;;;5113451;28;20047;-72
2023/01/12 10:35:14;;;;;;;22.55;4.20;;;;;;;;;;5103994;28;20048;-71
2023/01/12 10:37:43;;;;;;;22.08;3.92;;;;;;;;;;5100247;28;20039;-72
2023/01/12 10:40:20;;;;;;;17.38;3.10;;;;;;;;;;5109956;28;20081;-72
2023/01/12 10:45:42;;;;;;;19.63;3.70;;;;;;;;;;5106179;28;20126;-72
2023/01/12 10:48:21;;;;;;;21.38;2.90;;;;;;;;;;5102607;28;20110;-72
2023/01/12 10:51:04;;;;;;;16.52;4.18;;;;;;;;;;5112571;28;20122;-77
2023/01/12 10:53:36;;;;;;;14.60;2.97;;;;;;;;;;5113451;28;20059;-71
2023/01/12 10:56:14;;;;;;;21.20;3.55;;;;;;;;;;5113504;28;20055;-72
2023/01/12 10:58:40;;;;;;;16.90;3.30;;;;;;;;;;5105775;28;20072;-73
2023/01/12 11:01:06;;;;;;;18.98;3.58;;;;;;;;;;5092750;28;20052;-72
2023/01/12 11:03:36;;;;;;;13.73;2.50;;;;;;;;;;5092343;28;20052;-74
2023/01/12 11:06:15;;;;;;;12.00;2.35;;;;;;;;;;5092735;28;20044;-72
2023/01/12 11:08:41;;;;;;;16.80;3.40;;;;;;;;;;5105865;28;20447;-72
2023/01/12 11:11:22;;;;;;;15.13;2.97;;;;;;;;;;5105618;28;20052;-72
2023/01/12 11:13:51;;;;;;;14.95;2.90;;;;;;;;;;5107376;28;20551;-72
2023/01/12 11:16:21;;;;;;;14.05;2.60;;;;;;;;;;5111575;28;20048;-72
2023/01/12 11:18:51;;;;;;;18.85;3.35;;;;;;;;;;5102474;28;20107;-74
2023/01/12 11:21:20;;;;;;;16.85;2.67;;;;;;;;;;5109739;28;20113;-72
2023/01/12 11:23:46;;;;;;;15.75;2.78;;;;;;;;;;5112593;28;20039;-72
2023/01/12 11:26:17;;;;;;;18.52;3.40;;;;;;;;;;5112838;28;20040;-72
2023/01/12 11:28:51;;;;;;;18.42;3.60;;;;;;;;;;5119172;27;20081;-72
2023/01/12 11:31:28;;;;;;;17.85;3.25;;;;;;;;;;5119599;27;20055;-72
2023/01/12 11:34:23;;;;;;;18.92;3.28;;;;;;;;;;5112707;28;20054;-72
2023/01/12 11:36:54;;;;;;;17.90;3.45;;;;;;;;;;5100721;28;20056;-72
2023/01/12 11:39:22;;;;;;;17.60;3.28;;;;;;;;;;5125686;27;20481;-72
2023/01/12 11:44:41;;;;;;;19.27;3.65;;;;;;;;;;5133006;27;20078;-73
2023/01/12 11:47:12;;;;;;;25.85;3.80;;;;;;;;;;5133101;27;20096;-72
2023/01/12 11:49:38;;;;;;;;;;;;;;;;;;5128429;27;20040;-73
2023/01/12 11:52:05;;;;;;;20.00;4.28;;;;;;;;;;5103120;27;19920;-72
2023/01/12 11:54:31;;;;;;;19.60;3.08;;;;;;;;;;5095018;28;20059;-72
2023/01/12 11:57:22;;;;;;;19.02;3.72;;;;;;;;;;5115485;28;20035;-72
2023/01/12 12:00:01;;;;;;;23.38;3.70;;;;;;;;;;5106257;28;20047;-73
2023/01/12 12:02:27;;;;;;;21.10;4.20;;;;;;;;;;5091464;28;20063;-72
2023/01/12 12:05:12;;;;;;;24.67;4.03;;;;;;;;;;5108887;28;20039;-72
2023/01/12 12:07:48;;;;;;;18.83;3.40;;;;;;;;;;5112370;28;20038;-72
2023/01/12 12:10:17;;;;;;;17.48;4.15;;;;;;;;;;5108669;28;20044;-72
2023/01/12 12:12:46;;;;;;;21.50;3.60;;;;;;;;;;5110001;28;20047;-72
2023/01/12 12:15:27;;;;;;;20.15;3.60;;;;;;;;;;5106452;28;20043;-72
2023/01/12 12:17:59;;;;;;;15.93;3.43;;;;;;;;;;5107044;28;20036;-72
2023/01/12 12:20:31;;;;;;;14.73;3.17;;;;;;;;;;5097731;28;20305;-72
2023/01/12 12:23:16;;;;;;;23.50;3.67;;;;;;;;;;5112351;27;20054;-72
2023/01/12 12:25:48;;;;;;;20.30;3.38;;;;;;;;;;5123375;27;20523;-72
2023/01/12 12:28:46;;;;;;;22.73;3.63;;;;;;;;;;5112311;28;20059;-72
2023/01/12 12:31:32;;;;;;;23.10;4.57;;;;;;;;;;5107390;27;20055;-72
2023/01/12 12:34:18;;;;;;;24.33;4.32;;;;;;;;;;5107462;28;20043;-72
2023/01/12 12:36:48;;;;;;;16.88;2.95;;;;;;;;;;5091635;28;20478;-72
2023/01/12 12:39:17;;;;;;;19.67;3.88;;;;;;;;;;5100447;28;20112;-72
2023/01/12 12:47:40;;;;;;;17.88;4.18;;;;;;;;;;5099690;28;20048;-72
2023/01/12 12:50:12;;;;;;;19.65;4.60;;;;;;;;;;5115022;27;20044;-72
2023/01/12 12:52:38;;;;;;;19.52;3.83;;;;;;;;;;5109376;27;20059;-72
2023/01/12 12:55:05;;;;;;;19.90;3.72;;;;;;;;;;5108326;28;20047;-72
2023/01/12 12:57:31;;;;;;;18.95;3.95;;;;;;;;;;5107042;27;20043;-72
2023/01/12 13:00:01;;;;;;;17.55;3.80;;;;;;;;;;5115927;27;20179;-72
2023/01/12 13:02:37;;;;;;;19.60;4.47;;;;;;;;;;5112040;28;20402;-72
2023/01/12 13:05:05;;;;;;;15.00;3.35;;;;;;;;;;5104712;27;20054;-72
2023/01/12 13:07:33;;;;;;;19.90;3.88;;;;;;;;;;5098590;27;20454;-72
2023/01/12 13:10:20;;;;;;;22.80;3.83;;;;;;;;;;5107140;27;20047;-72
2023/01/12 13:12:55;;;;;;;25.17;3.60;;;;;;;;;;5106652;28;20104;-72
2023/01/12 13:15:23;;;;;;;20.17;4.03;;;;;;;;;;5105779;27;20047;-72
2023/01/12 13:17:51;;;;;;;23.73;3.95;;;;;;;;;;5110844;28;20489;-72
2023/01/12 13:20:17;;;;;;;23.33;3.92;;;;;;;;;;5096564;28;20040;-72
2023/01/12 13:22:48;;;;;;;20.27;3.72;;;;;;;;;;5105684;27;20039;-73
2023/01/12 13:25:18;;;;;;;21.48;5.05;;;;;;;;;;5115167;27;20058;-72
2023/01/12 13:27:59;;;;;;;21.23;4.03;;;;;;;;;;5108267;27;20055;-71
2023/01/12 13:30:25;;;;;;;;;;;;;;;;;;5114952;28;20131;-71
2023/01/12 13:32:54;;;;;;;25.42;4.05;;;;;;;;;;5102993;27;20366;-73
2023/01/12 13:35:23;;;;;;;23.02;4.07;;;;;;;;;;5101839;28;20039;-72
2023/01/12 13:38:10;;;;;;;22.30;4.00;;;;;;;;;;5121343;28;20047;-75
2023/01/12 13:40:36;;;;;;;22.15;4.30;;;;;;;;;;5114552;28;20134;-72
2023/01/12 13:43:18;;;;;;;24.35;4.85;;;;;;;;;;5116803;28;20055;-73
2023/01/12 13:46:03;;;;;;;22.35;5.30;;;;;;;;;;5115519;28;20087;-72
2023/01/12 13:48:30;;;;;;;23.98;6.13;;;;;;;;;;5113215;28;20048;-72
2023/01/12 13:50:59;;;;;;;23.40;4.45;;;;;;;;;;5103620;28;20521;-72
2023/01/12 13:53:26;;;;;;;15.80;3.30;;;;;;;;;;5094027;28;20060;-72
2023/01/12 13:56:02;;;;;;;23.23;3.72;;;;;;;;;;5100137;28;20067;-72
2023/01/12 13:58:36;;;;;;;20.05;4.13;;;;;;;;;;5100199;28;20048;-72
2023/01/12 14:01:02;;;;;;;23.60;4.75;;;;;;;;;;5092997;28;20101;-73
2023/01/12 14:03:28;;;;;;;29.70;4.95;;;;;;;;;;5099398;28;20047;-73
2023/01/12 14:06:13;;;;;;;23.60;4.22;;;;;;;;;;5113592;28;20048;-73
2023/01/12 14:09:02;;;;;;;21.48;3.60;;;;;;;;;;5113524;28;20059;-73
2023/01/12 14:11:34;;;;;;;17.45;3.45;;;;;;;;;;5036691;28;20045;-73
2023/01/12 14:19:53;;;;;;;10.70;2.20;;;;;;;;;;5036565;28;20409;-73
2023/01/12 14:22:19;;;;;;;11.30;2.58;;;;;;;;;;5063528;28;20049;-73
2023/01/12 14:24:45;;;;;;;14.18;3.20;;;;;;;;;;5050310;28;20087;-73
2023/01/12 14:27:24;;;;;;;13.90;2.50;;;;;;;;;;5040597;28;20045;-73
2023/01/12 14:29:50;;;;;;;13.65;3.60;;;;;;;;;;5034675;28;20519;-73
2023/01/12 14:32:17;;;;;;;10.77;2.70;;;;;;;;;;5033898;28;20132;-73
2023/01/12 14:34:48;;;;;;;16.13;3.08;;;;;;;;;;5062579;28;20060;-73
2023/01/12 14:37:26;;;;;;;8.90;2.30;;;;;;;;;;5030036;28;20111;-73
2023/01/12 14:39:52;;;;;;;11.65;2.30;;;;;;;;;;5046920;28;20132;-73
2023/01/12 14:48:42;;;;;;;10.00;2.40;;;;;;;;;;5069582;28;20489;-73
2023/01/12 14:51:25;;;;;;;6.25;2.10;;;;;;;;;;5056509;28;20417;-73
2023/01/12 14:53:56;;;;;;;5.63;1.85;;;;;;;;;;5042904;28;20495;-73
2023/01/12 14:56:43;;;;;;;8.13;1.63;;;;;;;;;;5061598;28;20056;-73
2023/01/12 14:59:13;;;;;;;6.03;2.15;;;;;;;;;;5068150;28;20048;-73
2023/01/12 15:01:40;;;;;;;4.80;1.87;;;;;;;;;;5070082;28;20133;-73
2023/01/12 15:04:07;;;;;;;5.43;1.77;;;;;;;;;;5067816;28;20740;-73
2023/01/12 15:06:37;;;;;;;6.38;2.13;;;;;;;;;;5069703;28;20433;-73
2023/01/12 15:09:04;;;;;;;5.70;1.98;;;;;;;;;;5057629;28;20045;-74
2023/01/12 15:11:31;;;;;;;4.47;1.60;;;;;;;;;;5050917;28;20040;-73
2023/01/12 15:13:58;;;;;;;4.15;1.38;;;;;;;;;;5062411;28;20048;-73
2023/01/12 15:27:24;;;;;;;4.40;1.60;;;;;;;;;;5111631;28;20060;-74
2023/01/12 15:29:50;;;;;;;4.70;1.50;;;;;;;;;;5108634;28;20036;-74
2023/01/12 15:32:21;;;;;;;4.50;1.75;;;;;;;;;;5112218;28;20088;-74
2023/01/12 15:34:48;;;;;;;5.10;1.77;;;;;;;;;;5107584;28;20574;-74
2023/01/12 15:37:17;;;;;;;7.00;1.35;;;;;;;;;;5109070;28;20042;-73
2023/01/12 15:39:44;;;;;;;4.22;1.80;;;;;;;;;;5109769;28;20050;-74
2023/01/12 15:42:20;;;;;;;5.25;2.03;;;;;;;;;;5113033;28;20511;-74
2023/01/12 15:44:46;;;;;;;4.63;2.05;;;;;;;;;;5103931;28;20040;-73
2023/01/12 15:47:16;;;;;;;4.00;1.50;;;;;;;;;;5094419;28;20048;-74
2023/01/12 15:49:44;;;;;;;3.72;1.63;;;;;;;;;;5098355;28;20474;-73